sensor_id;sensor_type;location;lat;lon;timestamp;temperature;humidity
44695;DHT22;32845;59.422;17.930;2023-03-05T00:01:25;-1.70;96.60
44695;DHT22;32845;59.422;17.930;2023-03-05T00:05:56;-1.70;96.70
44695;DHT22;32845;59.422;17.930;2023-03-05T00:10:27;-1.70;97.00
44695;DHT22;32845;59.422;17.930;2023-03-05T00:14:58;-1.70;97.30
44695;DHT22;32845;59.422;17.930;2023-03-05T00:19:28;-1.80;97.20
44695;DHT22;32845;59.422;17.930;2023-03-05T00:24:00;-1.80;97.20
44695;DHT22;32845;59.422;17.930;2023-03-05T00:28:32;-1.80;97.50
44695;DHT22;32845;59.422;17.930;2023-03-05T00:33:03;-1.80;97.70
44695;DHT22;32845;59.422;17.930;2023-03-05T00:37:33;-1.90;97.80
44695;DHT22;32845;59.422;17.930;2023-03-05T00:42:04;-1.90;97.70
44695;DHT22;32845;59.422;17.930;2023-03-05T00:46:35;-2.00;98.10
44695;DHT22;32845;59.422;17.930;2023-03-05T00:51:06;-2.00;98.20
44695;DHT22;32845;59.422;17.930;2023-03-05T00:55:38;-2.00;98.30
44695;DHT22;32845;59.422;17.930;2023-03-05T01:00:10;-2.00;98.40
44695;DHT22;32845;59.422;17.930;2023-03-05T01:04:41;-2.00;98.60
44695;DHT22;32845;59.422;17.930;2023-03-05T01:09:15;-2.10;98.90
44695;DHT22;32845;59.422;17.930;2023-03-05T01:13:46;-2.10;99.00
44695;DHT22;32845;59.422;17.930;2023-03-05T01:18:17;-2.10;99.40
44695;DHT22;32845;59.422;17.930;2023-03-05T01:22:48;-2.10;99.50
44695;DHT22;32845;59.422;17.930;2023-03-05T01:27:19;-2.20;99.70
44695;DHT22;32845;59.422;17.930;2023-03-05T01:31:50;-2.20;99.90
44695;DHT22;32845;59.422;17.930;2023-03-05T01:36:21;-2.20;99.90
44695;DHT22;32845;59.422;17.930;2023-03-05T01:40:54;-2.30;99.90
44695;DHT22;32845;59.422;17.930;2023-03-05T01:45:25;-2.30;99.90
44695;DHT22;32845;59.422;17.930;2023-03-05T01:49:56;-2.30;99.90
44695;DHT22;32845;59.422;17.930;2023-03-05T01:54:58;-2.30;99.90
44695;DHT22;32845;59.422;17.930;2023-03-05T01:59:29;-2.30;99.90
44695;DHT22;32845;59.422;17.930;2023-03-05T02:04:00;-2.40;99.90
44695;DHT22;32845;59.422;17.930;2023-03-05T02:08:31;-2.40;99.90
44695;DHT22;32845;59.422;17.930;2023-03-05T02:13:06;-2.40;99.90
44695;DHT22;32845;59.422;17.930;2023-03-05T02:17:37;-2.50;99.90
44695;DHT22;32845;59.422;17.930;2023-03-05T02:22:14;-2.50;99.90
44695;DHT22;32845;59.422;17.930;2023-03-05T02:26:46;-2.50;99.90
44695;DHT22;32845;59.422;17.930;2023-03-05T02:31:22;-2.50;99.90
44695;DHT22;32845;59.422;17.930;2023-03-05T02:35:53;-2.60;99.90
44695;DHT22;32845;59.422;17.930;2023-03-05T02:40:24;-2.60;99.90
44695;DHT22;32845;59.422;17.930;2023-03-05T02:44:54;-2.60;99.90
44695;DHT22;32845;59.422;17.930;2023-03-05T02:49:25;-2.60;99.90
44695;DHT22;32845;59.422;17.930;2023-03-05T02:53:56;-2.70;99.90
44695;DHT22;32845;59.422;17.930;2023-03-05T02:58:27;-2.70;99.90
44695;DHT22;32845;59.422;17.930;2023-03-05T03:02:58;-2.80;99.90
44695;DHT22;32845;59.422;17.930;2023-03-05T03:07:28;-2.80;99.90
44695;DHT22;32845;59.422;17.930;2023-03-05T03:11:59;-2.80;99.90
44695;DHT22;32845;59.422;17.930;2023-03-05T03:16:30;-2.80;99.90
44695;DHT22;32845;59.422;17.930;2023-03-05T03:21:01;-2.80;99.90
44695;DHT22;32845;59.422;17.930;2023-03-05T03:25:32;-2.80;99.90
44695;DHT22;32845;59.422;17.930;2023-03-05T03:30:04;-2.90;99.90
44695;DHT22;32845;59.422;17.930;2023-03-05T03:34:35;-2.90;99.90
44695;DHT22;32845;59.422;17.930;2023-03-05T03:39:06;-2.90;99.90
44695;DHT22;32845;59.422;17.930;2023-03-05T03:43:39;-2.90;99.90
44695;DHT22;32845;59.422;17.930;2023-03-05T03:48:10;-2.90;99.90
44695;DHT22;32845;59.422;17.930;2023-03-05T03:52:41;-3.00;99.90
44695;DHT22;32845;59.422;17.930;2023-03-05T03:57:11;-3.00;99.90
44695;DHT22;32845;59.422;17.930;2023-03-05T04:01:42;-3.00;99.90
44695;DHT22;32845;59.422;17.930;2023-03-05T04:06:13;-3.00;99.90
44695;DHT22;32845;59.422;17.930;2023-03-05T04:10:44;-3.00;99.90
44695;DHT22;32845;59.422;17.930;2023-03-05T04:15:14;-3.10;99.90
44695;DHT22;32845;59.422;17.930;2023-03-05T04:19:45;-3.10;99.90
44695;DHT22;32845;59.422;17.930;2023-03-05T04:24:16;-3.10;99.90
44695;DHT22;32845;59.422;17.930;2023-03-05T04:28:47;-3.10;99.90
44695;DHT22;32845;59.422;17.930;2023-03-05T04:33:18;-3.10;99.90
44695;DHT22;32845;59.422;17.930;2023-03-05T04:37:49;-3.10;99.90
44695;DHT22;32845;59.422;17.930;2023-03-05T04:42:19;-3.20;99.90
44695;DHT22;32845;59.422;17.930;2023-03-05T04:46:50;-3.20;99.90
44695;DHT22;32845;59.422;17.930;2023-03-05T04:51:21;-3.20;99.90
44695;DHT22;32845;59.422;17.930;2023-03-05T04:55:55;-3.20;99.90
44695;DHT22;32845;59.422;17.930;2023-03-05T05:00:31;-3.20;99.90
44695;DHT22;32845;59.422;17.930;2023-03-05T05:05:02;-3.20;99.90
44695;DHT22;32845;59.422;17.930;2023-03-05T05:09:33;-3.30;99.90
44695;DHT22;32845;59.422;17.930;2023-03-05T05:14:04;-3.30;99.90
44695;DHT22;32845;59.422;17.930;2023-03-05T05:18:35;-3.30;99.90
44695;DHT22;32845;59.422;17.930;2023-03-05T05:23:06;-3.30;99.90
44695;DHT22;32845;59.422;17.930;2023-03-05T05:27:38;-3.30;99.90
44695;DHT22;32845;59.422;17.930;2023-03-05T05:32:09;-3.30;99.90
44695;DHT22;32845;59.422;17.930;2023-03-05T05:36:40;-3.30;99.90
44695;DHT22;32845;59.422;17.930;2023-03-05T05:41:13;-3.30;99.90
44695;DHT22;32845;59.422;17.930;2023-03-05T05:45:44;-3.30;99.90
44695;DHT22;32845;59.422;17.930;2023-03-05T05:50:16;-3.30;99.90
44695;DHT22;32845;59.422;17.930;2023-03-05T05:54:47;-3.30;99.90
44695;DHT22;32845;59.422;17.930;2023-03-05T05:59:18;-3.30;99.90
44695;DHT22;32845;59.422;17.930;2023-03-05T06:03:49;-3.20;99.90
44695;DHT22;32845;59.422;17.930;2023-03-05T06:08:20;-3.20;99.90
44695;DHT22;32845;59.422;17.930;2023-03-05T06:12:51;-3.10;99.90
44695;DHT22;32845;59.422;17.930;2023-03-05T06:17:21;-3.10;99.90
44695;DHT22;32845;59.422;17.930;2023-03-05T06:21:52;-3.00;99.90
44695;DHT22;32845;59.422;17.930;2023-03-05T06:26:23;-3.00;99.90
44695;DHT22;32845;59.422;17.930;2023-03-05T06:31:02;-3.00;99.90
44695;DHT22;32845;59.422;17.930;2023-03-05T06:35:34;-2.90;99.90
44695;DHT22;32845;59.422;17.930;2023-03-05T06:40:07;-2.80;99.90
44695;DHT22;32845;59.422;17.930;2023-03-05T06:44:40;-2.80;99.90
44695;DHT22;32845;59.422;17.930;2023-03-05T06:49:11;-2.70;99.90
44695;DHT22;32845;59.422;17.930;2023-03-05T06:53:43;-2.60;99.90
44695;DHT22;32845;59.422;17.930;2023-03-05T06:58:13;-2.60;99.90
44695;DHT22;32845;59.422;17.930;2023-03-05T07:02:44;-2.50;99.90
44695;DHT22;32845;59.422;17.930;2023-03-05T07:07:15;-2.50;99.90
44695;DHT22;32845;59.422;17.930;2023-03-05T07:11:45;-2.40;99.90
44695;DHT22;32845;59.422;17.930;2023-03-05T07:16:18;-2.40;99.90
44695;DHT22;32845;59.422;17.930;2023-03-05T07:20:49;-2.30;99.90
44695;DHT22;32845;59.422;17.930;2023-03-05T07:25:20;-2.20;99.90
44695;DHT22;32845;59.422;17.930;2023-03-05T07:29:51;-2.10;99.90
44695;DHT22;32845;59.422;17.930;2023-03-05T07:34:21;-2.00;99.90
44695;DHT22;32845;59.422;17.930;2023-03-05T07:38:53;-1.80;99.90
44695;DHT22;32845;59.422;17.930;2023-03-05T07:43:24;-1.70;99.90
44695;DHT22;32845;59.422;17.930;2023-03-05T07:47:54;-1.60;99.90
44695;DHT22;32845;59.422;17.930;2023-03-05T07:52:26;-1.50;99.90
44695;DHT22;32845;59.422;17.930;2023-03-05T07:56:56;-1.40;99.90
44695;DHT22;32845;59.422;17.930;2023-03-05T08:01:28;-1.40;99.90
44695;DHT22;32845;59.422;17.930;2023-03-05T08:06:04;-1.30;99.90
44695;DHT22;32845;59.422;17.930;2023-03-05T08:10:36;-1.20;99.90
44695;DHT22;32845;59.422;17.930;2023-03-05T08:15:07;-1.10;99.90
44695;DHT22;32845;59.422;17.930;2023-03-05T08:19:38;-0.90;99.90
44695;DHT22;32845;59.422;17.930;2023-03-05T08:24:10;-0.70;99.90
44695;DHT22;32845;59.422;17.930;2023-03-05T08:28:41;-0.60;99.90
44695;DHT22;32845;59.422;17.930;2023-03-05T08:33:13;-0.50;99.90
44695;DHT22;32845;59.422;17.930;2023-03-05T08:37:44;-0.40;99.90
44695;DHT22;32845;59.422;17.930;2023-03-05T08:42:15;-0.30;99.90
44695;DHT22;32845;59.422;17.930;2023-03-05T08:46:46;-0.20;99.90
44695;DHT22;32845;59.422;17.930;2023-03-05T08:51:19;-0.20;99.90
44695;DHT22;32845;59.422;17.930;2023-03-05T08:55:54;-0.20;99.90
44695;DHT22;32845;59.422;17.930;2023-03-05T09:00:25;-0.20;99.90
44695;DHT22;32845;59.422;17.930;2023-03-05T09:04:55;-0.20;99.90
44695;DHT22;32845;59.422;17.930;2023-03-05T09:09:26;-0.20;99.90
44695;DHT22;32845;59.422;17.930;2023-03-05T09:13:59;-0.10;99.90
44695;DHT22;32845;59.422;17.930;2023-03-05T09:18:35;0.00;99.90
44695;DHT22;32845;59.422;17.930;2023-03-05T09:23:06;0.30;99.90
44695;DHT22;32845;59.422;17.930;2023-03-05T09:27:37;0.60;99.90
44695;DHT22;32845;59.422;17.930;2023-03-05T09:32:08;0.90;99.90
44695;DHT22;32845;59.422;17.930;2023-03-05T09:36:39;1.10;99.90
44695;DHT22;32845;59.422;17.930;2023-03-05T09:55:41;1.10;99.90
44695;DHT22;32845;59.422;17.930;2023-03-05T10:04:59;1.30;99.90
44695;DHT22;32845;59.422;17.930;2023-03-05T10:14:28;1.80;99.90
44695;DHT22;32845;59.422;17.930;2023-03-05T10:19:10;2.10;99.90
44695;DHT22;32845;59.422;17.930;2023-03-05T10:47:51;7.50;93.00
44695;DHT22;32845;59.422;17.930;2023-03-05T10:57:15;11.20;79.40
44695;DHT22;32845;59.422;17.930;2023-03-05T11:02:04;12.00;74.70
44695;DHT22;32845;59.422;17.930;2023-03-05T11:06:41;12.80;71.50
44695;DHT22;32845;59.422;17.930;2023-03-05T11:11:15;13.40;69.30
44695;DHT22;32845;59.422;17.930;2023-03-05T11:15:58;14.00;68.40
44695;DHT22;32845;59.422;17.930;2023-03-05T11:20:33;14.00;63.00
44695;DHT22;32845;59.422;17.930;2023-03-05T11:29:48;13.20;64.00
44695;DHT22;32845;59.422;17.930;2023-03-05T11:43:38;8.90;68.10
44695;DHT22;32845;59.422;17.930;2023-03-05T11:48:31;7.20;72.40
44695;DHT22;32845;59.422;17.930;2023-03-05T11:53:10;6.10;76.10
44695;DHT22;32845;59.422;17.930;2023-03-05T11:57:53;5.60;78.60
44695;DHT22;32845;59.422;17.930;2023-03-05T12:02:27;5.70;79.90
44695;DHT22;32845;59.422;17.930;2023-03-05T12:07:00;5.70;79.80
44695;DHT22;32845;59.422;17.930;2023-03-05T12:11:32;5.10;80.70
44695;DHT22;32845;59.422;17.930;2023-03-05T12:26:03;4.80;85.90
44695;DHT22;32845;59.422;17.930;2023-03-05T12:35:25;6.60;86.50
44695;DHT22;32845;59.422;17.930;2023-03-05T12:44:30;5.90;89.80
44695;DHT22;32845;59.422;17.930;2023-03-05T12:53:50;4.80;91.10
44695;DHT22;32845;59.422;17.930;2023-03-05T13:03:17;4.30;93.30
44695;DHT22;32845;59.422;17.930;2023-03-05T13:07:49;4.60;93.10
44695;DHT22;32845;59.422;17.930;2023-03-05T13:12:20;4.70;92.80
44695;DHT22;32845;59.422;17.930;2023-03-05T13:16:52;4.30;93.20
44695;DHT22;32845;59.422;17.930;2023-03-05T13:21:32;4.00;94.50
44695;DHT22;32845;59.422;17.930;2023-03-05T13:26:13;3.70;95.30
44695;DHT22;32845;59.422;17.930;2023-03-05T13:31:02;3.40;96.00
44695;DHT22;32845;59.422;17.930;2023-03-05T13:35:46;3.60;97.20
44695;DHT22;32845;59.422;17.930;2023-03-05T13:45:20;3.40;95.80
44695;DHT22;32845;59.422;17.930;2023-03-05T13:50:04;3.30;97.60
44695;DHT22;32845;59.422;17.930;2023-03-05T13:54:36;3.30;98.30
44695;DHT22;32845;59.422;17.930;2023-03-05T13:59:17;3.30;98.40
44695;DHT22;32845;59.422;17.930;2023-03-05T14:03:49;3.30;98.80
44695;DHT22;32845;59.422;17.930;2023-03-05T14:08:23;3.20;98.30
44695;DHT22;32845;59.422;17.930;2023-03-05T14:12:55;3.10;99.10
44695;DHT22;32845;59.422;17.930;2023-03-05T14:21:57;2.80;99.80
44695;DHT22;32845;59.422;17.930;2023-03-05T14:26:34;2.80;99.80
44695;DHT22;32845;59.422;17.930;2023-03-05T14:31:13;2.70;99.60
44695;DHT22;32845;59.422;17.930;2023-03-05T14:35:47;2.60;99.50
44695;DHT22;32845;59.422;17.930;2023-03-05T14:44:50;2.30;99.90
44695;DHT22;32845;59.422;17.930;2023-03-05T14:49:21;2.20;99.90
44695;DHT22;32845;59.422;17.930;2023-03-05T14:53:51;2.10;99.90
44695;DHT22;32845;59.422;17.930;2023-03-05T14:58:25;2.00;99.90
44695;DHT22;32845;59.422;17.930;2023-03-05T15:02:57;1.90;99.90
44695;DHT22;32845;59.422;17.930;2023-03-05T15:07:30;1.90;99.90
44695;DHT22;32845;59.422;17.930;2023-03-05T15:12:01;1.80;99.90
44695;DHT22;32845;59.422;17.930;2023-03-05T15:16:31;1.80;99.90
44695;DHT22;32845;59.422;17.930;2023-03-05T15:21:02;1.80;99.90
44695;DHT22;32845;59.422;17.930;2023-03-05T15:25:33;1.70;99.90
44695;DHT22;32845;59.422;17.930;2023-03-05T15:30:07;1.60;99.90
44695;DHT22;32845;59.422;17.930;2023-03-05T15:34:38;1.60;99.90
44695;DHT22;32845;59.422;17.930;2023-03-05T15:39:09;1.50;99.90
44695;DHT22;32845;59.422;17.930;2023-03-05T15:43:39;1.50;99.90
44695;DHT22;32845;59.422;17.930;2023-03-05T15:48:11;1.40;99.90
44695;DHT22;32845;59.422;17.930;2023-03-05T15:52:41;1.40;99.90
44695;DHT22;32845;59.422;17.930;2023-03-05T15:57:12;1.30;99.90
44695;DHT22;32845;59.422;17.930;2023-03-05T16:01:47;1.30;99.90
44695;DHT22;32845;59.422;17.930;2023-03-05T16:06:20;1.20;99.90
44695;DHT22;32845;59.422;17.930;2023-03-05T16:10:52;1.10;99.90
44695;DHT22;32845;59.422;17.930;2023-03-05T16:15:23;1.00;99.90
44695;DHT22;32845;59.422;17.930;2023-03-05T16:19:54;1.00;99.90
44695;DHT22;32845;59.422;17.930;2023-03-05T16:24:25;0.90;99.90
44695;DHT22;32845;59.422;17.930;2023-03-05T16:28:56;0.90;99.90
44695;DHT22;32845;59.422;17.930;2023-03-05T16:33:27;0.80;99.90
44695;DHT22;32845;59.422;17.930;2023-03-05T16:37:57;0.70;99.90
44695;DHT22;32845;59.422;17.930;2023-03-05T16:42:28;0.70;99.90
44695;DHT22;32845;59.422;17.930;2023-03-05T16:46:59;0.60;99.90
44695;DHT22;32845;59.422;17.930;2023-03-05T16:51:30;0.50;99.90
44695;DHT22;32845;59.422;17.930;2023-03-05T16:56:02;0.50;99.90
44695;DHT22;32845;59.422;17.930;2023-03-05T17:00:33;0.40;99.90
44695;DHT22;32845;59.422;17.930;2023-03-05T17:05:04;0.40;99.90
44695;DHT22;32845;59.422;17.930;2023-03-05T17:09:35;0.30;99.90
44695;DHT22;32845;59.422;17.930;2023-03-05T17:14:06;0.20;99.90
44695;DHT22;32845;59.422;17.930;2023-03-05T17:18:37;0.10;99.90
44695;DHT22;32845;59.422;17.930;2023-03-05T17:23:08;-0.20;99.90
44695;DHT22;32845;59.422;17.930;2023-03-05T17:27:38;-0.30;99.90
44695;DHT22;32845;59.422;17.930;2023-03-05T17:32:09;-0.50;99.90
44695;DHT22;32845;59.422;17.930;2023-03-05T17:36:40;-0.60;99.90
44695;DHT22;32845;59.422;17.930;2023-03-05T17:41:11;-0.70;99.90
44695;DHT22;32845;59.422;17.930;2023-03-05T17:45:42;-0.70;99.90
44695;DHT22;32845;59.422;17.930;2023-03-05T17:50:13;-0.70;99.90
44695;DHT22;32845;59.422;17.930;2023-03-05T17:54:44;-0.80;99.90
44695;DHT22;32845;59.422;17.930;2023-03-05T17:59:14;-0.80;99.90
44695;DHT22;32845;59.422;17.930;2023-03-05T18:03:45;-0.90;99.90
44695;DHT22;32845;59.422;17.930;2023-03-05T18:08:16;-0.90;99.90
44695;DHT22;32845;59.422;17.930;2023-03-05T18:12:47;-0.90;99.90
44695;DHT22;32845;59.422;17.930;2023-03-05T18:17:18;-0.90;99.90
44695;DHT22;32845;59.422;17.930;2023-03-05T18:21:49;-0.90;99.90
44695;DHT22;32845;59.422;17.930;2023-03-05T18:26:21;-0.90;99.90
44695;DHT22;32845;59.422;17.930;2023-03-05T18:30:51;-0.90;99.90
44695;DHT22;32845;59.422;17.930;2023-03-05T18:35:22;-1.00;99.90
44695;DHT22;32845;59.422;17.930;2023-03-05T18:39:53;-1.00;99.90
44695;DHT22;32845;59.422;17.930;2023-03-05T18:44:24;-1.00;99.90
44695;DHT22;32845;59.422;17.930;2023-03-05T18:48:56;-1.00;99.90
44695;DHT22;32845;59.422;17.930;2023-03-05T18:53:26;-1.00;99.90
44695;DHT22;32845;59.422;17.930;2023-03-05T18:57:57;-1.00;99.90
44695;DHT22;32845;59.422;17.930;2023-03-05T19:02:29;-1.10;99.90
44695;DHT22;32845;59.422;17.930;2023-03-05T19:07:00;-1.10;99.90
44695;DHT22;32845;59.422;17.930;2023-03-05T19:11:30;-1.20;99.90
44695;DHT22;32845;59.422;17.930;2023-03-05T19:16:28;-1.20;99.90
44695;DHT22;32845;59.422;17.930;2023-03-05T19:21:03;-1.20;99.90
44695;DHT22;32845;59.422;17.930;2023-03-05T19:25:33;-1.30;99.90
44695;DHT22;32845;59.422;17.930;2023-03-05T19:30:05;-1.30;99.90
44695;DHT22;32845;59.422;17.930;2023-03-05T19:34:36;-1.30;99.90
44695;DHT22;32845;59.422;17.930;2023-03-05T19:39:07;-1.30;99.90
44695;DHT22;32845;59.422;17.930;2023-03-05T19:43:39;-1.30;99.90
44695;DHT22;32845;59.422;17.930;2023-03-05T19:48:09;-1.40;99.90
44695;DHT22;32845;59.422;17.930;2023-03-05T19:52:40;-1.40;99.90
44695;DHT22;32845;59.422;17.930;2023-03-05T19:57:11;-1.40;99.90
44695;DHT22;32845;59.422;17.930;2023-03-05T20:01:41;-1.40;99.90
44695;DHT22;32845;59.422;17.930;2023-03-05T20:06:12;-1.40;99.90
44695;DHT22;32845;59.422;17.930;2023-03-05T20:10:43;-1.40;99.90
44695;DHT22;32845;59.422;17.930;2023-03-05T20:15:14;-1.40;99.90
44695;DHT22;32845;59.422;17.930;2023-03-05T20:19:44;-1.40;99.90
44695;DHT22;32845;59.422;17.930;2023-03-05T20:24:17;-1.40;99.90
44695;DHT22;32845;59.422;17.930;2023-03-05T20:28:49;-1.50;99.90
44695;DHT22;32845;59.422;17.930;2023-03-05T20:33:19;-1.50;99.90
44695;DHT22;32845;59.422;17.930;2023-03-05T20:37:53;-1.50;99.90
44695;DHT22;32845;59.422;17.930;2023-03-05T20:42:39;-1.50;99.90
44695;DHT22;32845;59.422;17.930;2023-03-05T20:47:10;-1.60;99.90
44695;DHT22;32845;59.422;17.930;2023-03-05T20:52:01;-1.70;99.90
44695;DHT22;32845;59.422;17.930;2023-03-05T20:56:33;-1.80;99.90
44695;DHT22;32845;59.422;17.930;2023-03-05T21:01:04;-1.80;99.90
44695;DHT22;32845;59.422;17.930;2023-03-05T21:05:35;-1.90;99.90
44695;DHT22;32845;59.422;17.930;2023-03-05T21:10:06;-1.90;99.90
44695;DHT22;32845;59.422;17.930;2023-03-05T21:14:37;-1.90;99.90
44695;DHT22;32845;59.422;17.930;2023-03-05T21:19:10;-1.80;99.90
44695;DHT22;32845;59.422;17.930;2023-03-05T21:23:40;-1.90;99.90
44695;DHT22;32845;59.422;17.930;2023-03-05T21:28:13;-2.00;99.90
44695;DHT22;32845;59.422;17.930;2023-03-05T21:32:48;-2.10;99.90
44695;DHT22;32845;59.422;17.930;2023-03-05T21:37:19;-2.20;99.90
44695;DHT22;32845;59.422;17.930;2023-03-05T21:41:49;-2.30;99.90
44695;DHT22;32845;59.422;17.930;2023-03-05T21:46:20;-2.40;99.90
44695;DHT22;32845;59.422;17.930;2023-03-05T21:50:51;-2.50;99.90
44695;DHT22;32845;59.422;17.930;2023-03-05T21:55:22;-2.60;99.90
44695;DHT22;32845;59.422;17.930;2023-03-05T22:00:00;-2.70;99.90
44695;DHT22;32845;59.422;17.930;2023-03-05T22:04:30;-2.70;99.90
44695;DHT22;32845;59.422;17.930;2023-03-05T22:09:01;-2.80;99.90
44695;DHT22;32845;59.422;17.930;2023-03-05T22:13:32;-2.90;99.90
44695;DHT22;32845;59.422;17.930;2023-03-05T22:18:03;-2.80;99.90
44695;DHT22;32845;59.422;17.930;2023-03-05T22:22:34;-2.80;99.90
44695;DHT22;32845;59.422;17.930;2023-03-05T22:27:07;-2.80;99.90
44695;DHT22;32845;59.422;17.930;2023-03-05T22:31:38;-2.90;99.90
44695;DHT22;32845;59.422;17.930;2023-03-05T22:36:11;-2.80;99.90
44695;DHT22;32845;59.422;17.930;2023-03-05T22:40:43;-2.90;99.90
44695;DHT22;32845;59.422;17.930;2023-03-05T22:45:16;-2.90;99.90
44695;DHT22;32845;59.422;17.930;2023-03-05T22:49:47;-2.90;99.90
44695;DHT22;32845;59.422;17.930;2023-03-05T22:54:18;-3.00;99.90
44695;DHT22;32845;59.422;17.930;2023-03-05T22:58:48;-3.00;99.90
44695;DHT22;32845;59.422;17.930;2023-03-05T23:03:19;-3.00;99.90
44695;DHT22;32845;59.422;17.930;2023-03-05T23:07:50;-3.10;99.90
44695;DHT22;32845;59.422;17.930;2023-03-05T23:12:21;-3.20;99.90
44695;DHT22;32845;59.422;17.930;2023-03-05T23:16:52;-3.30;99.90
44695;DHT22;32845;59.422;17.930;2023-03-05T23:21:22;-3.30;99.90
44695;DHT22;32845;59.422;17.930;2023-03-05T23:25:53;-3.40;99.90
44695;DHT22;32845;59.422;17.930;2023-03-05T23:34:56;-3.60;99.90
44695;DHT22;32845;59.422;17.930;2023-03-05T23:39:26;-3.60;99.90
44695;DHT22;32845;59.422;17.930;2023-03-05T23:43:57;-3.70;99.90
44695;DHT22;32845;59.422;17.930;2023-03-05T23:48:28;-3.70;99.90
44695;DHT22;32845;59.422;17.930;2023-03-05T23:53:00;-3.70;99.90
44695;DHT22;32845;59.422;17.930;2023-03-05T23:57:31;-3.80;99.90
